sensor_id;sensor_type;location;lat;lon;timestamp;temperature;humidity
10848;DHT22;5477;48.806;9.154;2024-03-07T00:00:08;7.90;99.90
10848;DHT22;5477;48.806;9.154;2024-03-07T00:02:43;7.90;99.90
10848;DHT22;5477;48.806;9.154;2024-03-07T00:05:11;7.90;99.90
10848;DHT22;5477;48.806;9.154;2024-03-07T00:07:40;7.80;99.90
10848;DHT22;5477;48.806;9.154;2024-03-07T00:10:08;7.80;99.90
10848;DHT22;5477;48.806;9.154;2024-03-07T00:12:39;7.80;99.90
10848;DHT22;5477;48.806;9.154;2024-03-07T00:15:08;7.70;99.90
10848;DHT22;5477;48.806;9.154;2024-03-07T00:17:38;7.70;99.90
10848;DHT22;5477;48.806;9.154;2024-03-07T00:20:07;7.70;99.90
10848;DHT22;5477;48.806;9.154;2024-03-07T00:22:41;7.70;99.90
10848;DHT22;5477;48.806;9.154;2024-03-07T00:25:09;7.70;99.90
10848;DHT22;5477;48.806;9.154;2024-03-07T00:27:39;7.60;99.90
10848;DHT22;5477;48.806;9.154;2024-03-07T00:30:08;7.60;99.90
10848;DHT22;5477;48.806;9.154;2024-03-07T00:32:36;7.50;99.90
10848;DHT22;5477;48.806;9.154;2024-03-07T00:35:07;7.40;99.90
10848;DHT22;5477;48.806;9.154;2024-03-07T00:37:37;7.40;99.90
10848;DHT22;5477;48.806;9.154;2024-03-07T00:40:06;7.30;99.90
10848;DHT22;5477;48.806;9.154;2024-03-07T00:42:34;7.20;99.90
10848;DHT22;5477;48.806;9.154;2024-03-07T00:45:04;7.20;99.90
10848;DHT22;5477;48.806;9.154;2024-03-07T00:47:33;7.10;99.90
10848;DHT22;5477;48.806;9.154;2024-03-07T00:50:01;7.10;99.90
10848;DHT22;5477;48.806;9.154;2024-03-07T00:52:29;7.10;99.90
10848;DHT22;5477;48.806;9.154;2024-03-07T00:54:57;7.20;99.90
10848;DHT22;5477;48.806;9.154;2024-03-07T00:57:25;7.20;99.90
10848;DHT22;5477;48.806;9.154;2024-03-07T00:59:53;7.10;99.90
10848;DHT22;5477;48.806;9.154;2024-03-07T01:02:23;7.10;99.90
10848;DHT22;5477;48.806;9.154;2024-03-07T01:04:52;7.10;99.90
10848;DHT22;5477;48.806;9.154;2024-03-07T01:07:21;7.00;99.90
10848;DHT22;5477;48.806;9.154;2024-03-07T01:09:50;7.00;99.90
10848;DHT22;5477;48.806;9.154;2024-03-07T01:12:18;6.90;99.90
10848;DHT22;5477;48.806;9.154;2024-03-07T01:14:49;6.80;99.90
10848;DHT22;5477;48.806;9.154;2024-03-07T01:17:18;6.70;99.90
10848;DHT22;5477;48.806;9.154;2024-03-07T01:19:47;6.80;99.90
10848;DHT22;5477;48.806;9.154;2024-03-07T01:22:15;6.70;99.90
10848;DHT22;5477;48.806;9.154;2024-03-07T01:24:43;6.70;99.90
10848;DHT22;5477;48.806;9.154;2024-03-07T01:27:11;6.70;99.90
10848;DHT22;5477;48.806;9.154;2024-03-07T01:29:39;6.60;99.90
10848;DHT22;5477;48.806;9.154;2024-03-07T01:32:08;6.60;99.90
10848;DHT22;5477;48.806;9.154;2024-03-07T01:34:36;6.60;99.90
10848;DHT22;5477;48.806;9.154;2024-03-07T01:37:05;6.50;99.90
10848;DHT22;5477;48.806;9.154;2024-03-07T01:39:35;6.40;99.90
10848;DHT22;5477;48.806;9.154;2024-03-07T01:42:03;6.30;99.90
10848;DHT22;5477;48.806;9.154;2024-03-07T01:44:31;6.20;99.90
10848;DHT22;5477;48.806;9.154;2024-03-07T01:46:59;6.20;99.90
10848;DHT22;5477;48.806;9.154;2024-03-07T01:49:30;6.10;99.90
10848;DHT22;5477;48.806;9.154;2024-03-07T01:51:59;6.00;99.90
10848;DHT22;5477;48.806;9.154;2024-03-07T01:54:29;6.00;99.90
10848;DHT22;5477;48.806;9.154;2024-03-07T01:56:57;5.90;99.90
10848;DHT22;5477;48.806;9.154;2024-03-07T01:59:25;5.90;99.90
10848;DHT22;5477;48.806;9.154;2024-03-07T02:01:57;5.90;99.90
10848;DHT22;5477;48.806;9.154;2024-03-07T02:04:25;5.90;99.90
10848;DHT22;5477;48.806;9.154;2024-03-07T02:06:53;5.90;99.90
10848;DHT22;5477;48.806;9.154;2024-03-07T02:09:21;5.90;99.90
10848;DHT22;5477;48.806;9.154;2024-03-07T02:11:51;5.80;99.90
10848;DHT22;5477;48.806;9.154;2024-03-07T02:14:19;5.80;99.90
10848;DHT22;5477;48.806;9.154;2024-03-07T02:16:47;5.80;99.90
10848;DHT22;5477;48.806;9.154;2024-03-07T02:19:15;5.90;99.90
10848;DHT22;5477;48.806;9.154;2024-03-07T02:21:46;5.90;99.90
10848;DHT22;5477;48.806;9.154;2024-03-07T02:24:14;5.90;99.90
10848;DHT22;5477;48.806;9.154;2024-03-07T02:26:42;5.90;99.90
10848;DHT22;5477;48.806;9.154;2024-03-07T02:29:10;5.80;99.90
10848;DHT22;5477;48.806;9.154;2024-03-07T02:31:38;5.70;99.90
10848;DHT22;5477;48.806;9.154;2024-03-07T02:34:08;5.70;99.90
10848;DHT22;5477;48.806;9.154;2024-03-07T02:36:36;5.60;99.90
10848;DHT22;5477;48.806;9.154;2024-03-07T02:39:05;5.60;99.90
10848;DHT22;5477;48.806;9.154;2024-03-07T02:41:34;5.50;99.90
10848;DHT22;5477;48.806;9.154;2024-03-07T02:44:02;5.50;99.90
10848;DHT22;5477;48.806;9.154;2024-03-07T02:46:31;5.40;99.90
10848;DHT22;5477;48.806;9.154;2024-03-07T02:48:59;5.30;99.90
10848;DHT22;5477;48.806;9.154;2024-03-07T02:51:27;5.20;99.90
10848;DHT22;5477;48.806;9.154;2024-03-07T02:53:55;5.00;99.90
10848;DHT22;5477;48.806;9.154;2024-03-07T02:56:25;4.90;99.90
10848;DHT22;5477;48.806;9.154;2024-03-07T02:58:53;4.80;99.90
10848;DHT22;5477;48.806;9.154;2024-03-07T03:01:22;4.80;99.90
10848;DHT22;5477;48.806;9.154;2024-03-07T03:03:50;4.80;99.90
10848;DHT22;5477;48.806;9.154;2024-03-07T03:06:18;4.80;99.90
10848;DHT22;5477;48.806;9.154;2024-03-07T03:08:47;4.80;99.90
10848;DHT22;5477;48.806;9.154;2024-03-07T03:11:15;4.80;99.90
10848;DHT22;5477;48.806;9.154;2024-03-07T03:13:45;4.70;99.90
10848;DHT22;5477;48.806;9.154;2024-03-07T03:16:14;4.50;99.90
10848;DHT22;5477;48.806;9.154;2024-03-07T03:18:43;4.30;99.90
10848;DHT22;5477;48.806;9.154;2024-03-07T03:21:11;4.30;99.90
10848;DHT22;5477;48.806;9.154;2024-03-07T03:23:39;4.30;99.90
10848;DHT22;5477;48.806;9.154;2024-03-07T03:26:08;4.30;99.90
10848;DHT22;5477;48.806;9.154;2024-03-07T03:28:36;4.30;99.90
10848;DHT22;5477;48.806;9.154;2024-03-07T03:31:05;4.10;99.90
10848;DHT22;5477;48.806;9.154;2024-03-07T03:33:33;4.00;99.90
10848;DHT22;5477;48.806;9.154;2024-03-07T03:36:02;3.80;99.90
10848;DHT22;5477;48.806;9.154;2024-03-07T03:38:30;3.80;99.90
10848;DHT22;5477;48.806;9.154;2024-03-07T03:40:58;3.80;99.90
10848;DHT22;5477;48.806;9.154;2024-03-07T03:43:27;3.80;99.90
10848;DHT22;5477;48.806;9.154;2024-03-07T03:45:57;3.80;99.90
10848;DHT22;5477;48.806;9.154;2024-03-07T03:48:26;3.60;99.90
10848;DHT22;5477;48.806;9.154;2024-03-07T03:50:54;3.40;99.90
10848;DHT22;5477;48.806;9.154;2024-03-07T03:53:22;3.40;99.90
10848;DHT22;5477;48.806;9.154;2024-03-07T03:55:51;3.40;99.90
10848;DHT22;5477;48.806;9.154;2024-03-07T03:58:19;3.30;99.90
10848;DHT22;5477;48.806;9.154;2024-03-07T04:00:47;3.30;99.90
10848;DHT22;5477;48.806;9.154;2024-03-07T04:03:15;3.20;99.90
10848;DHT22;5477;48.806;9.154;2024-03-07T04:05:44;3.10;99.90
10848;DHT22;5477;48.806;9.154;2024-03-07T04:08:13;3.10;99.90
10848;DHT22;5477;48.806;9.154;2024-03-07T04:10:41;3.20;99.90
10848;DHT22;5477;48.806;9.154;2024-03-07T04:13:09;3.20;99.90
10848;DHT22;5477;48.806;9.154;2024-03-07T04:15:37;3.40;99.90
10848;DHT22;5477;48.806;9.154;2024-03-07T04:18:10;3.50;99.90
10848;DHT22;5477;48.806;9.154;2024-03-07T04:20:39;3.60;99.90
10848;DHT22;5477;48.806;9.154;2024-03-07T04:23:08;3.50;99.90
10848;DHT22;5477;48.806;9.154;2024-03-07T04:25:38;3.40;99.90
10848;DHT22;5477;48.806;9.154;2024-03-07T04:28:08;3.30;99.90
10848;DHT22;5477;48.806;9.154;2024-03-07T04:30:36;3.30;99.90
10848;DHT22;5477;48.806;9.154;2024-03-07T04:33:05;3.30;99.90
10848;DHT22;5477;48.806;9.154;2024-03-07T04:35:33;3.40;99.90
10848;DHT22;5477;48.806;9.154;2024-03-07T04:38:02;3.40;99.90
10848;DHT22;5477;48.806;9.154;2024-03-07T04:40:37;3.50;99.90
10848;DHT22;5477;48.806;9.154;2024-03-07T04:43:06;3.50;99.90
10848;DHT22;5477;48.806;9.154;2024-03-07T04:45:34;3.50;99.90
10848;DHT22;5477;48.806;9.154;2024-03-07T04:48:03;3.40;99.90
10848;DHT22;5477;48.806;9.154;2024-03-07T04:50:31;3.40;99.90
10848;DHT22;5477;48.806;9.154;2024-03-07T04:53:00;3.40;99.90
10848;DHT22;5477;48.806;9.154;2024-03-07T04:55:28;3.50;99.90
10848;DHT22;5477;48.806;9.154;2024-03-07T04:57:58;3.50;99.90
10848;DHT22;5477;48.806;9.154;2024-03-07T05:00:26;3.50;99.90
10848;DHT22;5477;48.806;9.154;2024-03-07T05:02:56;3.50;99.90
10848;DHT22;5477;48.806;9.154;2024-03-07T05:05:24;3.50;99.90
10848;DHT22;5477;48.806;9.154;2024-03-07T05:07:53;3.30;99.90
10848;DHT22;5477;48.806;9.154;2024-03-07T05:10:22;3.30;99.90
10848;DHT22;5477;48.806;9.154;2024-03-07T05:12:50;3.20;99.90
10848;DHT22;5477;48.806;9.154;2024-03-07T05:15:20;3.20;99.90
10848;DHT22;5477;48.806;9.154;2024-03-07T05:17:52;3.10;99.90
10848;DHT22;5477;48.806;9.154;2024-03-07T05:20:23;3.00;99.90
10848;DHT22;5477;48.806;9.154;2024-03-07T05:22:51;3.00;99.90
10848;DHT22;5477;48.806;9.154;2024-03-07T05:25:20;2.90;99.90
10848;DHT22;5477;48.806;9.154;2024-03-07T05:27:48;2.90;99.90
10848;DHT22;5477;48.806;9.154;2024-03-07T05:30:17;2.80;99.90
10848;DHT22;5477;48.806;9.154;2024-03-07T05:32:47;2.80;99.90
10848;DHT22;5477;48.806;9.154;2024-03-07T05:35:16;2.70;99.90
10848;DHT22;5477;48.806;9.154;2024-03-07T05:37:48;2.70;99.90
10848;DHT22;5477;48.806;9.154;2024-03-07T05:40:18;2.70;99.90
10848;DHT22;5477;48.806;9.154;2024-03-07T05:42:46;2.70;99.90
10848;DHT22;5477;48.806;9.154;2024-03-07T05:45:14;2.70;99.90
10848;DHT22;5477;48.806;9.154;2024-03-07T05:47:44;2.70;99.90
10848;DHT22;5477;48.806;9.154;2024-03-07T05:50:16;2.60;99.90
10848;DHT22;5477;48.806;9.154;2024-03-07T05:52:45;2.60;99.90
10848;DHT22;5477;48.806;9.154;2024-03-07T05:55:14;2.60;99.90
10848;DHT22;5477;48.806;9.154;2024-03-07T05:57:45;2.50;99.90
10848;DHT22;5477;48.806;9.154;2024-03-07T06:00:14;2.60;99.90
10848;DHT22;5477;48.806;9.154;2024-03-07T06:02:42;2.60;99.90
10848;DHT22;5477;48.806;9.154;2024-03-07T06:05:11;2.50;99.90
10848;DHT22;5477;48.806;9.154;2024-03-07T06:07:44;2.50;99.90
10848;DHT22;5477;48.806;9.154;2024-03-07T06:10:13;2.60;99.90
10848;DHT22;5477;48.806;9.154;2024-03-07T06:12:43;2.70;99.90
10848;DHT22;5477;48.806;9.154;2024-03-07T06:15:31;2.60;99.90
10848;DHT22;5477;48.806;9.154;2024-03-07T06:17:59;2.60;99.90
10848;DHT22;5477;48.806;9.154;2024-03-07T06:20:27;2.50;99.90
10848;DHT22;5477;48.806;9.154;2024-03-07T06:22:57;2.40;99.90
10848;DHT22;5477;48.806;9.154;2024-03-07T06:25:26;2.40;99.90
10848;DHT22;5477;48.806;9.154;2024-03-07T06:28:04;2.30;99.90
10848;DHT22;5477;48.806;9.154;2024-03-07T06:30:39;2.40;99.90
10848;DHT22;5477;48.806;9.154;2024-03-07T06:33:07;2.40;99.90
10848;DHT22;5477;48.806;9.154;2024-03-07T06:35:36;2.40;99.90
10848;DHT22;5477;48.806;9.154;2024-03-07T06:38:07;2.40;99.90
10848;DHT22;5477;48.806;9.154;2024-03-07T06:40:35;2.40;99.90
10848;DHT22;5477;48.806;9.154;2024-03-07T06:43:04;2.40;99.90
10848;DHT22;5477;48.806;9.154;2024-03-07T06:45:33;2.60;99.90
10848;DHT22;5477;48.806;9.154;2024-03-07T06:48:02;2.70;99.90
10848;DHT22;5477;48.806;9.154;2024-03-07T06:50:30;2.80;99.90
10848;DHT22;5477;48.806;9.154;2024-03-07T06:53:06;2.90;99.90
10848;DHT22;5477;48.806;9.154;2024-03-07T06:55:35;3.00;99.90
10848;DHT22;5477;48.806;9.154;2024-03-07T06:58:03;3.00;99.90
10848;DHT22;5477;48.806;9.154;2024-03-07T07:00:32;3.10;99.90
10848;DHT22;5477;48.806;9.154;2024-03-07T07:03:03;3.20;99.90
10848;DHT22;5477;48.806;9.154;2024-03-07T07:05:31;3.30;99.90
10848;DHT22;5477;48.806;9.154;2024-03-07T07:08:00;3.40;99.90
10848;DHT22;5477;48.806;9.154;2024-03-07T07:10:30;3.40;99.90
10848;DHT22;5477;48.806;9.154;2024-03-07T07:12:58;3.50;99.90
10848;DHT22;5477;48.806;9.154;2024-03-07T07:15:26;3.60;99.90
10848;DHT22;5477;48.806;9.154;2024-03-07T07:17:54;3.70;99.90
10848;DHT22;5477;48.806;9.154;2024-03-07T07:20:24;3.80;99.90
10848;DHT22;5477;48.806;9.154;2024-03-07T07:22:52;3.90;99.90
10848;DHT22;5477;48.806;9.154;2024-03-07T07:25:21;3.90;99.90
10848;DHT22;5477;48.806;9.154;2024-03-07T07:27:51;3.90;99.90
10848;DHT22;5477;48.806;9.154;2024-03-07T07:30:21;4.00;99.90
10848;DHT22;5477;48.806;9.154;2024-03-07T07:32:50;4.00;99.90
10848;DHT22;5477;48.806;9.154;2024-03-07T07:35:19;4.00;99.90
10848;DHT22;5477;48.806;9.154;2024-03-07T07:37:49;4.10;99.90
10848;DHT22;5477;48.806;9.154;2024-03-07T07:40:19;4.10;99.90
10848;DHT22;5477;48.806;9.154;2024-03-07T07:42:51;4.10;99.90
10848;DHT22;5477;48.806;9.154;2024-03-07T07:45:21;4.10;99.90
10848;DHT22;5477;48.806;9.154;2024-03-07T07:47:50;4.20;99.90
10848;DHT22;5477;48.806;9.154;2024-03-07T07:50:21;4.30;99.90
10848;DHT22;5477;48.806;9.154;2024-03-07T07:52:50;4.40;99.90
10848;DHT22;5477;48.806;9.154;2024-03-07T07:55:20;4.50;99.90
10848;DHT22;5477;48.806;9.154;2024-03-07T07:57:51;4.60;99.90
10848;DHT22;5477;48.806;9.154;2024-03-07T08:00:21;4.60;99.90
10848;DHT22;5477;48.806;9.154;2024-03-07T08:02:51;4.60;99.90
10848;DHT22;5477;48.806;9.154;2024-03-07T08:05:20;4.70;99.90
10848;DHT22;5477;48.806;9.154;2024-03-07T08:07:50;4.70;99.90
10848;DHT22;5477;48.806;9.154;2024-03-07T08:10:18;4.60;99.90
10848;DHT22;5477;48.806;9.154;2024-03-07T08:12:47;4.60;99.90
10848;DHT22;5477;48.806;9.154;2024-03-07T08:15:17;4.70;99.90
10848;DHT22;5477;48.806;9.154;2024-03-07T08:17:46;4.80;99.90
10848;DHT22;5477;48.806;9.154;2024-03-07T08:20:15;4.80;99.90
10848;DHT22;5477;48.806;9.154;2024-03-07T08:22:45;4.80;99.90
10848;DHT22;5477;48.806;9.154;2024-03-07T08:25:14;4.80;99.90
10848;DHT22;5477;48.806;9.154;2024-03-07T08:27:44;4.90;99.90
10848;DHT22;5477;48.806;9.154;2024-03-07T08:30:13;4.90;99.90
10848;DHT22;5477;48.806;9.154;2024-03-07T08:32:44;4.90;99.90
10848;DHT22;5477;48.806;9.154;2024-03-07T08:35:13;5.00;99.90
10848;DHT22;5477;48.806;9.154;2024-03-07T08:37:43;5.00;99.90
10848;DHT22;5477;48.806;9.154;2024-03-07T08:40:12;4.90;99.90
10848;DHT22;5477;48.806;9.154;2024-03-07T08:42:46;4.80;99.90
10848;DHT22;5477;48.806;9.154;2024-03-07T08:45:14;4.90;99.90
10848;DHT22;5477;48.806;9.154;2024-03-07T08:47:47;4.90;99.90
10848;DHT22;5477;48.806;9.154;2024-03-07T08:50:16;5.00;99.90
10848;DHT22;5477;48.806;9.154;2024-03-07T08:52:47;5.10;99.90
10848;DHT22;5477;48.806;9.154;2024-03-07T08:55:16;5.20;99.90
10848;DHT22;5477;48.806;9.154;2024-03-07T08:57:44;5.20;99.90
10848;DHT22;5477;48.806;9.154;2024-03-07T09:00:16;5.30;99.90
10848;DHT22;5477;48.806;9.154;2024-03-07T09:02:52;5.40;99.90
10848;DHT22;5477;48.806;9.154;2024-03-07T09:05:21;5.30;99.90
10848;DHT22;5477;48.806;9.154;2024-03-07T09:07:51;5.30;99.90
10848;DHT22;5477;48.806;9.154;2024-03-07T09:10:20;5.40;99.90
10848;DHT22;5477;48.806;9.154;2024-03-07T09:12:50;5.50;99.90
10848;DHT22;5477;48.806;9.154;2024-03-07T09:15:19;5.50;99.90
10848;DHT22;5477;48.806;9.154;2024-03-07T09:17:51;5.50;99.90
10848;DHT22;5477;48.806;9.154;2024-03-07T09:20:20;5.40;99.90
10848;DHT22;5477;48.806;9.154;2024-03-07T09:22:50;5.50;99.90
10848;DHT22;5477;48.806;9.154;2024-03-07T09:25:21;5.60;99.90
10848;DHT22;5477;48.806;9.154;2024-03-07T09:27:51;5.80;99.90
10848;DHT22;5477;48.806;9.154;2024-03-07T09:30:19;6.00;99.90
10848;DHT22;5477;48.806;9.154;2024-03-07T09:32:53;6.10;99.90
10848;DHT22;5477;48.806;9.154;2024-03-07T09:35:22;6.10;99.90
10848;DHT22;5477;48.806;9.154;2024-03-07T09:37:50;6.20;99.90
10848;DHT22;5477;48.806;9.154;2024-03-07T09:40:18;6.20;99.90
10848;DHT22;5477;48.806;9.154;2024-03-07T09:42:51;6.20;99.90
10848;DHT22;5477;48.806;9.154;2024-03-07T09:45:23;6.30;99.90
10848;DHT22;5477;48.806;9.154;2024-03-07T09:47:57;6.30;99.90
10848;DHT22;5477;48.806;9.154;2024-03-07T09:50:26;6.40;99.90
10848;DHT22;5477;48.806;9.154;2024-03-07T09:52:58;6.50;99.90
10848;DHT22;5477;48.806;9.154;2024-03-07T09:55:27;6.60;99.90
10848;DHT22;5477;48.806;9.154;2024-03-07T09:57:58;6.70;99.90
10848;DHT22;5477;48.806;9.154;2024-03-07T10:00:28;6.90;99.90
10848;DHT22;5477;48.806;9.154;2024-03-07T10:03:02;7.20;99.90
10848;DHT22;5477;48.806;9.154;2024-03-07T10:05:31;7.40;99.90
10848;DHT22;5477;48.806;9.154;2024-03-07T10:08:00;7.60;99.90
10848;DHT22;5477;48.806;9.154;2024-03-07T10:10:29;7.70;99.90
10848;DHT22;5477;48.806;9.154;2024-03-07T10:12:58;7.80;99.90
10848;DHT22;5477;48.806;9.154;2024-03-07T10:15:28;8.20;99.90
10848;DHT22;5477;48.806;9.154;2024-03-07T10:17:56;8.60;99.90
10848;DHT22;5477;48.806;9.154;2024-03-07T10:20:26;9.00;99.90
10848;DHT22;5477;48.806;9.154;2024-03-07T10:22:55;9.40;99.90
10848;DHT22;5477;48.806;9.154;2024-03-07T10:25:23;9.80;99.90
10848;DHT22;5477;48.806;9.154;2024-03-07T10:27:54;9.80;99.90
10848;DHT22;5477;48.806;9.154;2024-03-07T10:30:24;10.00;99.90
10848;DHT22;5477;48.806;9.154;2024-03-07T10:32:55;10.40;99.90
10848;DHT22;5477;48.806;9.154;2024-03-07T10:35:28;10.70;99.90
10848;DHT22;5477;48.806;9.154;2024-03-07T10:37:58;10.80;99.90
10848;DHT22;5477;48.806;9.154;2024-03-07T10:40:28;10.70;99.90
10848;DHT22;5477;48.806;9.154;2024-03-07T10:42:58;10.10;99.90
10848;DHT22;5477;48.806;9.154;2024-03-07T10:45:29;9.70;99.90
10848;DHT22;5477;48.806;9.154;2024-03-07T10:47:58;9.40;99.90
10848;DHT22;5477;48.806;9.154;2024-03-07T10:50:39;9.20;99.90
10848;DHT22;5477;48.806;9.154;2024-03-07T10:53:19;9.00;99.90
10848;DHT22;5477;48.806;9.154;2024-03-07T10:56:05;8.90;99.90
10848;DHT22;5477;48.806;9.154;2024-03-07T10:58:43;8.80;99.90
10848;DHT22;5477;48.806;9.154;2024-03-07T11:01:17;8.70;99.90
10848;DHT22;5477;48.806;9.154;2024-03-07T11:03:47;8.60;99.90
10848;DHT22;5477;48.806;9.154;2024-03-07T11:06:20;8.60;99.90
10848;DHT22;5477;48.806;9.154;2024-03-07T11:08:50;8.70;99.90
10848;DHT22;5477;48.806;9.154;2024-03-07T11:11:20;8.70;99.90
10848;DHT22;5477;48.806;9.154;2024-03-07T11:13:50;8.70;99.90
10848;DHT22;5477;48.806;9.154;2024-03-07T11:16:21;8.80;99.90
10848;DHT22;5477;48.806;9.154;2024-03-07T11:19:19;8.70;99.90
10848;DHT22;5477;48.806;9.154;2024-03-07T11:21:49;8.70;99.90
10848;DHT22;5477;48.806;9.154;2024-03-07T11:24:24;8.80;99.90
10848;DHT22;5477;48.806;9.154;2024-03-07T11:26:53;9.00;99.90
10848;DHT22;5477;48.806;9.154;2024-03-07T11:29:47;9.00;99.90
10848;DHT22;5477;48.806;9.154;2024-03-07T11:32:20;8.90;99.90
10848;DHT22;5477;48.806;9.154;2024-03-07T11:34:53;8.90;99.90
10848;DHT22;5477;48.806;9.154;2024-03-07T11:40:42;9.00;99.90
10848;DHT22;5477;48.806;9.154;2024-03-07T11:43:11;9.10;99.90
10848;DHT22;5477;48.806;9.154;2024-03-07T11:45:39;9.30;99.90
10848;DHT22;5477;48.806;9.154;2024-03-07T11:48:12;9.30;99.90
10848;DHT22;5477;48.806;9.154;2024-03-07T11:50:41;9.40;99.90
10848;DHT22;5477;48.806;9.154;2024-03-07T11:53:10;9.40;99.90
10848;DHT22;5477;48.806;9.154;2024-03-07T11:55:40;9.40;99.90
10848;DHT22;5477;48.806;9.154;2024-03-07T11:58:13;9.30;99.90
10848;DHT22;5477;48.806;9.154;2024-03-07T12:00:44;9.30;99.90
10848;DHT22;5477;48.806;9.154;2024-03-07T12:03:13;9.10;99.90
10848;DHT22;5477;48.806;9.154;2024-03-07T12:05:41;9.00;99.90
10848;DHT22;5477;48.806;9.154;2024-03-07T12:08:10;9.00;99.90
10848;DHT22;5477;48.806;9.154;2024-03-07T12:10:41;9.00;99.90
10848;DHT22;5477;48.806;9.154;2024-03-07T12:13:15;9.10;99.90
10848;DHT22;5477;48.806;9.154;2024-03-07T12:15:43;9.10;99.90
10848;DHT22;5477;48.806;9.154;2024-03-07T12:18:12;8.90;99.90
10848;DHT22;5477;48.806;9.154;2024-03-07T12:20:45;8.90;99.90
10848;DHT22;5477;48.806;9.154;2024-03-07T12:23:17;8.90;99.90
10848;DHT22;5477;48.806;9.154;2024-03-07T12:25:59;8.70;99.90
10848;DHT22;5477;48.806;9.154;2024-03-07T12:28:28;8.70;99.90
10848;DHT22;5477;48.806;9.154;2024-03-07T12:31:00;8.70;99.90
10848;DHT22;5477;48.806;9.154;2024-03-07T12:33:30;8.70;99.90
10848;DHT22;5477;48.806;9.154;2024-03-07T12:36:06;8.60;99.90
10848;DHT22;5477;48.806;9.154;2024-03-07T12:38:36;8.70;99.90
10848;DHT22;5477;48.806;9.154;2024-03-07T12:41:09;8.70;99.90
10848;DHT22;5477;48.806;9.154;2024-03-07T12:43:43;8.70;99.90
10848;DHT22;5477;48.806;9.154;2024-03-07T12:46:12;8.80;99.90
10848;DHT22;5477;48.806;9.154;2024-03-07T12:48:42;8.80;99.90
10848;DHT22;5477;48.806;9.154;2024-03-07T12:51:13;8.80;99.90
10848;DHT22;5477;48.806;9.154;2024-03-07T12:53:45;8.80;99.90
10848;DHT22;5477;48.806;9.154;2024-03-07T12:56:15;8.90;99.90
10848;DHT22;5477;48.806;9.154;2024-03-07T12:58:46;8.90;99.90
10848;DHT22;5477;48.806;9.154;2024-03-07T13:01:17;9.10;99.90
10848;DHT22;5477;48.806;9.154;2024-03-07T13:03:47;9.10;99.90
10848;DHT22;5477;48.806;9.154;2024-03-07T13:06:16;9.00;99.90
10848;DHT22;5477;48.806;9.154;2024-03-07T13:08:52;9.00;99.90
10848;DHT22;5477;48.806;9.154;2024-03-07T13:11:22;8.80;99.90
10848;DHT22;5477;48.806;9.154;2024-03-07T13:13:50;8.70;99.90
10848;DHT22;5477;48.806;9.154;2024-03-07T13:16:19;8.60;99.90
10848;DHT22;5477;48.806;9.154;2024-03-07T13:18:47;8.70;99.90
10848;DHT22;5477;48.806;9.154;2024-03-07T13:21:16;8.70;99.90
10848;DHT22;5477;48.806;9.154;2024-03-07T13:23:44;8.70;99.90
10848;DHT22;5477;48.806;9.154;2024-03-07T13:26:13;8.60;99.90
10848;DHT22;5477;48.806;9.154;2024-03-07T13:28:49;8.50;99.90
10848;DHT22;5477;48.806;9.154;2024-03-07T13:31:17;8.60;99.90
10848;DHT22;5477;48.806;9.154;2024-03-07T13:33:46;8.50;99.90
10848;DHT22;5477;48.806;9.154;2024-03-07T13:36:18;8.50;99.90
10848;DHT22;5477;48.806;9.154;2024-03-07T13:38:51;8.40;99.90
10848;DHT22;5477;48.806;9.154;2024-03-07T13:41:20;8.30;99.90
10848;DHT22;5477;48.806;9.154;2024-03-07T13:43:49;8.30;99.90
10848;DHT22;5477;48.806;9.154;2024-03-07T13:46:18;8.40;99.90
10848;DHT22;5477;48.806;9.154;2024-03-07T13:48:48;8.60;99.90
10848;DHT22;5477;48.806;9.154;2024-03-07T13:51:18;8.60;99.90
10848;DHT22;5477;48.806;9.154;2024-03-07T13:53:47;8.70;99.90
10848;DHT22;5477;48.806;9.154;2024-03-07T13:56:34;8.60;99.90
10848;DHT22;5477;48.806;9.154;2024-03-07T13:59:23;8.50;99.90
10848;DHT22;5477;48.806;9.154;2024-03-07T14:02:05;8.50;99.90
10848;DHT22;5477;48.806;9.154;2024-03-07T14:07:57;8.30;99.90
10848;DHT22;5477;48.806;9.154;2024-03-07T14:11:01;8.30;99.90
10848;DHT22;5477;48.806;9.154;2024-03-07T14:13:44;8.40;99.90
10848;DHT22;5477;48.806;9.154;2024-03-07T14:23:06;8.50;99.90
10848;DHT22;5477;48.806;9.154;2024-03-07T14:26:02;8.60;99.90
10848;DHT22;5477;48.806;9.154;2024-03-07T14:28:53;8.80;99.90
10848;DHT22;5477;48.806;9.154;2024-03-07T14:31:26;8.90;99.90
10848;DHT22;5477;48.806;9.154;2024-03-07T14:34:06;8.90;99.90
10848;DHT22;5477;48.806;9.154;2024-03-07T14:36:41;8.90;99.90
10848;DHT22;5477;48.806;9.154;2024-03-07T14:39:13;9.00;99.90
10848;DHT22;5477;48.806;9.154;2024-03-07T14:41:48;9.00;99.90
10848;DHT22;5477;48.806;9.154;2024-03-07T14:44:18;8.90;99.90
10848;DHT22;5477;48.806;9.154;2024-03-07T14:46:51;9.00;99.90
10848;DHT22;5477;48.806;9.154;2024-03-07T14:49:20;9.10;99.90
10848;DHT22;5477;48.806;9.154;2024-03-07T14:51:50;9.10;99.90
10848;DHT22;5477;48.806;9.154;2024-03-07T14:54:28;9.10;99.90
10848;DHT22;5477;48.806;9.154;2024-03-07T14:56:57;9.00;99.90
10848;DHT22;5477;48.806;9.154;2024-03-07T14:59:25;9.00;99.90
10848;DHT22;5477;48.806;9.154;2024-03-07T15:01:53;9.00;99.90
10848;DHT22;5477;48.806;9.154;2024-03-07T15:04:22;9.00;99.90
10848;DHT22;5477;48.806;9.154;2024-03-07T15:06:50;9.10;99.90
10848;DHT22;5477;48.806;9.154;2024-03-07T15:09:19;9.00;99.90
10848;DHT22;5477;48.806;9.154;2024-03-07T15:11:48;9.10;99.90
10848;DHT22;5477;48.806;9.154;2024-03-07T15:14:17;9.20;99.90
10848;DHT22;5477;48.806;9.154;2024-03-07T15:16:59;9.30;99.90
10848;DHT22;5477;48.806;9.154;2024-03-07T15:19:27;9.30;99.90
10848;DHT22;5477;48.806;9.154;2024-03-07T15:21:57;9.30;99.90
10848;DHT22;5477;48.806;9.154;2024-03-07T15:24:25;9.20;99.90
10848;DHT22;5477;48.806;9.154;2024-03-07T15:26:54;9.20;99.90
10848;DHT22;5477;48.806;9.154;2024-03-07T15:29:24;9.10;99.90
10848;DHT22;5477;48.806;9.154;2024-03-07T15:31:54;9.00;99.90
10848;DHT22;5477;48.806;9.154;2024-03-07T15:34:23;9.00;99.90
10848;DHT22;5477;48.806;9.154;2024-03-07T15:37:00;9.00;99.90
10848;DHT22;5477;48.806;9.154;2024-03-07T15:39:29;9.10;99.90
10848;DHT22;5477;48.806;9.154;2024-03-07T15:41:58;9.20;99.90
10848;DHT22;5477;48.806;9.154;2024-03-07T15:44:27;9.20;99.90
10848;DHT22;5477;48.806;9.154;2024-03-07T15:46:55;9.20;99.90
10848;DHT22;5477;48.806;9.154;2024-03-07T15:49:23;9.30;99.90
10848;DHT22;5477;48.806;9.154;2024-03-07T15:51:52;9.30;99.90
10848;DHT22;5477;48.806;9.154;2024-03-07T15:54:20;9.20;99.90
10848;DHT22;5477;48.806;9.154;2024-03-07T15:56:51;9.30;99.90
10848;DHT22;5477;48.806;9.154;2024-03-07T15:59:20;9.30;99.90
10848;DHT22;5477;48.806;9.154;2024-03-07T16:01:49;9.30;99.90
10848;DHT22;5477;48.806;9.154;2024-03-07T16:04:17;9.30;99.90
10848;DHT22;5477;48.806;9.154;2024-03-07T16:06:45;9.30;99.90
10848;DHT22;5477;48.806;9.154;2024-03-07T16:09:13;9.20;99.90
10848;DHT22;5477;48.806;9.154;2024-03-07T16:11:49;9.10;99.90
10848;DHT22;5477;48.806;9.154;2024-03-07T16:14:17;9.00;99.90
10848;DHT22;5477;48.806;9.154;2024-03-07T16:16:46;8.90;99.90
10848;DHT22;5477;48.806;9.154;2024-03-07T16:19:14;9.00;99.90
10848;DHT22;5477;48.806;9.154;2024-03-07T16:21:48;8.90;99.90
10848;DHT22;5477;48.806;9.154;2024-03-07T16:24:16;8.80;99.90
10848;DHT22;5477;48.806;9.154;2024-03-07T16:26:44;8.80;99.90
10848;DHT22;5477;48.806;9.154;2024-03-07T16:29:12;8.70;99.90
10848;DHT22;5477;48.806;9.154;2024-03-07T16:31:40;8.60;99.90
10848;DHT22;5477;48.806;9.154;2024-03-07T16:34:12;8.60;99.90